sensor_id;sensor_type;location;lat;lon;timestamp;temperature;humidity
8862;DHT22;4799;50.996;4.754;2023-07-20T00:01:22;16.50;99.90
8862;DHT22;4799;50.996;4.754;2023-07-20T00:03:47;16.50;99.90
8862;DHT22;4799;50.996;4.754;2023-07-20T00:06:29;16.50;99.90
8862;DHT22;4799;50.996;4.754;2023-07-20T00:08:55;16.60;99.90
8862;DHT22;4799;50.996;4.754;2023-07-20T00:11:26;16.60;99.90
8862;DHT22;4799;50.996;4.754;2023-07-20T00:13:52;16.60;99.90
8862;DHT22;4799;50.996;4.754;2023-07-20T00:16:18;16.70;99.90
8862;DHT22;4799;50.996;4.754;2023-07-20T00:18:44;16.70;99.90
8862;DHT22;4799;50.996;4.754;2023-07-20T00:21:10;16.80;99.90
8862;DHT22;4799;50.996;4.754;2023-07-20T00:23:35;16.80;99.90
8862;DHT22;4799;50.996;4.754;2023-07-20T00:26:01;16.90;99.90
8862;DHT22;4799;50.996;4.754;2023-07-20T00:28:27;16.90;99.90
8862;DHT22;4799;50.996;4.754;2023-07-20T00:30:53;17.00;99.90
8862;DHT22;4799;50.996;4.754;2023-07-20T00:33:19;16.90;99.90
8862;DHT22;4799;50.996;4.754;2023-07-20T00:35:45;17.00;99.90
8862;DHT22;4799;50.996;4.754;2023-07-20T00:38:11;16.90;99.90
8862;DHT22;4799;50.996;4.754;2023-07-20T00:40:37;16.90;99.90
8862;DHT22;4799;50.996;4.754;2023-07-20T00:43:03;17.00;99.90
8862;DHT22;4799;50.996;4.754;2023-07-20T00:45:30;17.00;99.90
8862;DHT22;4799;50.996;4.754;2023-07-20T00:47:56;17.00;99.90
8862;DHT22;4799;50.996;4.754;2023-07-20T00:50:23;17.10;99.90
8862;DHT22;4799;50.996;4.754;2023-07-20T00:52:49;17.00;99.90
8862;DHT22;4799;50.996;4.754;2023-07-20T00:55:15;17.00;99.90
8862;DHT22;4799;50.996;4.754;2023-07-20T00:57:41;17.00;99.90
8862;DHT22;4799;50.996;4.754;2023-07-20T01:00:07;17.00;99.90
8862;DHT22;4799;50.996;4.754;2023-07-20T01:02:33;17.00;99.90
8862;DHT22;4799;50.996;4.754;2023-07-20T01:04:58;17.00;99.90
8862;DHT22;4799;50.996;4.754;2023-07-20T01:07:34;16.90;99.90
8862;DHT22;4799;50.996;4.754;2023-07-20T01:12:47;16.90;99.90
8862;DHT22;4799;50.996;4.754;2023-07-20T01:15:13;16.80;99.90
8862;DHT22;4799;50.996;4.754;2023-07-20T01:17:41;16.80;99.90
8862;DHT22;4799;50.996;4.754;2023-07-20T01:20:07;16.70;99.90
8862;DHT22;4799;50.996;4.754;2023-07-20T01:26:07;16.60;99.90
8862;DHT22;4799;50.996;4.754;2023-07-20T01:32:01;16.50;99.90
8862;DHT22;4799;50.996;4.754;2023-07-20T01:34:29;16.40;99.90
8862;DHT22;4799;50.996;4.754;2023-07-20T01:36:56;16.30;99.90
8862;DHT22;4799;50.996;4.754;2023-07-20T01:39:23;16.30;99.90
8862;DHT22;4799;50.996;4.754;2023-07-20T01:41:49;16.30;99.90
8862;DHT22;4799;50.996;4.754;2023-07-20T01:44:15;16.30;99.90
8862;DHT22;4799;50.996;4.754;2023-07-20T01:46:40;16.30;99.90
8862;DHT22;4799;50.996;4.754;2023-07-20T01:49:06;16.30;99.90
8862;DHT22;4799;50.996;4.754;2023-07-20T01:51:32;16.30;99.90
8862;DHT22;4799;50.996;4.754;2023-07-20T01:53:57;16.30;99.90
8862;DHT22;4799;50.996;4.754;2023-07-20T01:56:23;16.20;99.90
8862;DHT22;4799;50.996;4.754;2023-07-20T01:58:49;16.20;99.90
8862;DHT22;4799;50.996;4.754;2023-07-20T02:01:15;16.20;99.90
8862;DHT22;4799;50.996;4.754;2023-07-20T02:03:40;16.10;99.90
8862;DHT22;4799;50.996;4.754;2023-07-20T02:06:06;16.10;99.90
8862;DHT22;4799;50.996;4.754;2023-07-20T02:08:32;16.10;99.90
8862;DHT22;4799;50.996;4.754;2023-07-20T02:10:57;16.10;99.90
8862;DHT22;4799;50.996;4.754;2023-07-20T02:13:23;16.10;99.90
8862;DHT22;4799;50.996;4.754;2023-07-20T02:15:49;16.10;99.90
8862;DHT22;4799;50.996;4.754;2023-07-20T02:18:15;16.00;99.90
8862;DHT22;4799;50.996;4.754;2023-07-20T02:20:41;15.90;99.90
8862;DHT22;4799;50.996;4.754;2023-07-20T02:23:07;15.90;99.90
8862;DHT22;4799;50.996;4.754;2023-07-20T02:25:33;15.80;99.90
8862;DHT22;4799;50.996;4.754;2023-07-20T02:27:59;15.70;99.90
8862;DHT22;4799;50.996;4.754;2023-07-20T02:30:25;15.70;99.90
8862;DHT22;4799;50.996;4.754;2023-07-20T02:32:50;15.60;99.90
8862;DHT22;4799;50.996;4.754;2023-07-20T02:35:16;15.50;99.90
8862;DHT22;4799;50.996;4.754;2023-07-20T02:37:42;15.50;99.90
8862;DHT22;4799;50.996;4.754;2023-07-20T02:40:08;15.50;99.90
8862;DHT22;4799;50.996;4.754;2023-07-20T02:42:35;15.40;99.90
8862;DHT22;4799;50.996;4.754;2023-07-20T02:45:02;15.40;99.90
8862;DHT22;4799;50.996;4.754;2023-07-20T02:47:29;15.40;99.90
8862;DHT22;4799;50.996;4.754;2023-07-20T02:49:54;15.30;99.90
8862;DHT22;4799;50.996;4.754;2023-07-20T02:52:20;15.30;99.90
8862;DHT22;4799;50.996;4.754;2023-07-20T02:54:46;15.30;99.90
8862;DHT22;4799;50.996;4.754;2023-07-20T02:57:11;15.30;99.90
8862;DHT22;4799;50.996;4.754;2023-07-20T02:59:37;15.30;99.90
8862;DHT22;4799;50.996;4.754;2023-07-20T03:02:03;15.40;99.90
8862;DHT22;4799;50.996;4.754;2023-07-20T03:04:29;15.30;99.90
8862;DHT22;4799;50.996;4.754;2023-07-20T03:06:54;15.30;99.90
8862;DHT22;4799;50.996;4.754;2023-07-20T03:09:20;15.30;99.90
8862;DHT22;4799;50.996;4.754;2023-07-20T03:11:46;15.30;99.90
8862;DHT22;4799;50.996;4.754;2023-07-20T03:14:11;15.30;99.90
8862;DHT22;4799;50.996;4.754;2023-07-20T03:16:38;15.20;99.90
8862;DHT22;4799;50.996;4.754;2023-07-20T03:19:03;15.20;99.90
8862;DHT22;4799;50.996;4.754;2023-07-20T03:21:30;15.10;99.90
8862;DHT22;4799;50.996;4.754;2023-07-20T03:23:56;15.10;99.90
8862;DHT22;4799;50.996;4.754;2023-07-20T03:26:21;15.00;99.90
8862;DHT22;4799;50.996;4.754;2023-07-20T03:28:47;15.00;99.90
8862;DHT22;4799;50.996;4.754;2023-07-20T03:31:13;15.10;99.90
8862;DHT22;4799;50.996;4.754;2023-07-20T03:33:40;15.10;99.90
8862;DHT22;4799;50.996;4.754;2023-07-20T03:36:06;15.10;99.90
8862;DHT22;4799;50.996;4.754;2023-07-20T03:38:31;15.20;99.90
8862;DHT22;4799;50.996;4.754;2023-07-20T03:40:59;15.20;99.90
8862;DHT22;4799;50.996;4.754;2023-07-20T03:43:26;15.20;99.90
8862;DHT22;4799;50.996;4.754;2023-07-20T03:45:53;15.20;99.90
8862;DHT22;4799;50.996;4.754;2023-07-20T03:48:23;15.30;99.90
8862;DHT22;4799;50.996;4.754;2023-07-20T03:50:50;15.30;99.90
8862;DHT22;4799;50.996;4.754;2023-07-20T03:53:16;15.30;99.90
8862;DHT22;4799;50.996;4.754;2023-07-20T03:55:49;15.30;99.90
8862;DHT22;4799;50.996;4.754;2023-07-20T03:58:15;15.40;99.90
8862;DHT22;4799;50.996;4.754;2023-07-20T04:00:50;15.50;99.90
8862;DHT22;4799;50.996;4.754;2023-07-20T04:03:16;15.50;99.90
8862;DHT22;4799;50.996;4.754;2023-07-20T04:05:42;15.50;99.90
8862;DHT22;4799;50.996;4.754;2023-07-20T04:08:08;15.50;99.90
8862;DHT22;4799;50.996;4.754;2023-07-20T04:10:34;15.60;99.90
8862;DHT22;4799;50.996;4.754;2023-07-20T04:13:01;15.60;99.90
8862;DHT22;4799;50.996;4.754;2023-07-20T04:15:26;15.70;99.90
8862;DHT22;4799;50.996;4.754;2023-07-20T04:17:52;15.70;99.90
8862;DHT22;4799;50.996;4.754;2023-07-20T04:20:18;15.70;99.90
8862;DHT22;4799;50.996;4.754;2023-07-20T04:22:44;15.70;99.90
8862;DHT22;4799;50.996;4.754;2023-07-20T04:25:10;15.80;99.90
8862;DHT22;4799;50.996;4.754;2023-07-20T04:27:36;15.80;99.90
8862;DHT22;4799;50.996;4.754;2023-07-20T04:30:02;15.90;99.90
8862;DHT22;4799;50.996;4.754;2023-07-20T04:32:29;16.10;99.90
8862;DHT22;4799;50.996;4.754;2023-07-20T04:34:55;16.20;99.90
8862;DHT22;4799;50.996;4.754;2023-07-20T04:37:20;16.30;99.90
8862;DHT22;4799;50.996;4.754;2023-07-20T04:39:46;16.30;99.90
8862;DHT22;4799;50.996;4.754;2023-07-20T04:42:12;16.40;99.90
8862;DHT22;4799;50.996;4.754;2023-07-20T04:44:38;16.40;99.90
8862;DHT22;4799;50.996;4.754;2023-07-20T04:47:04;16.50;99.90
8862;DHT22;4799;50.996;4.754;2023-07-20T04:49:29;16.60;99.90
8862;DHT22;4799;50.996;4.754;2023-07-20T04:51:55;16.60;99.90
8862;DHT22;4799;50.996;4.754;2023-07-20T04:54:21;16.70;99.90
8862;DHT22;4799;50.996;4.754;2023-07-20T04:56:46;16.70;99.90
8862;DHT22;4799;50.996;4.754;2023-07-20T04:59:12;16.70;99.90
8862;DHT22;4799;50.996;4.754;2023-07-20T05:01:38;16.70;99.90
8862;DHT22;4799;50.996;4.754;2023-07-20T05:04:03;16.70;99.90
8862;DHT22;4799;50.996;4.754;2023-07-20T05:06:29;16.80;99.90
8862;DHT22;4799;50.996;4.754;2023-07-20T05:08:55;16.80;99.90
8862;DHT22;4799;50.996;4.754;2023-07-20T05:11:20;16.90;99.90
8862;DHT22;4799;50.996;4.754;2023-07-20T05:13:46;17.00;99.90
8862;DHT22;4799;50.996;4.754;2023-07-20T05:16:12;17.10;99.90
8862;DHT22;4799;50.996;4.754;2023-07-20T05:18:37;17.20;99.90
8862;DHT22;4799;50.996;4.754;2023-07-20T05:21:03;17.30;99.90
8862;DHT22;4799;50.996;4.754;2023-07-20T05:23:30;17.40;99.90
8862;DHT22;4799;50.996;4.754;2023-07-20T05:25:57;17.50;99.90
8862;DHT22;4799;50.996;4.754;2023-07-20T05:28:23;17.60;99.90
8862;DHT22;4799;50.996;4.754;2023-07-20T05:30:50;17.50;99.90
8862;DHT22;4799;50.996;4.754;2023-07-20T05:33:18;17.50;99.90
8862;DHT22;4799;50.996;4.754;2023-07-20T05:35:44;17.50;99.90
8862;DHT22;4799;50.996;4.754;2023-07-20T05:38:09;17.50;99.90
8862;DHT22;4799;50.996;4.754;2023-07-20T05:40:40;17.60;99.90
8862;DHT22;4799;50.996;4.754;2023-07-20T05:43:07;17.60;99.90
8862;DHT22;4799;50.996;4.754;2023-07-20T05:45:32;17.50;99.90
8862;DHT22;4799;50.996;4.754;2023-07-20T05:47:58;17.60;99.90
8862;DHT22;4799;50.996;4.754;2023-07-20T05:50:24;17.60;99.90
8862;DHT22;4799;50.996;4.754;2023-07-20T05:52:52;17.60;99.90
8862;DHT22;4799;50.996;4.754;2023-07-20T05:55:18;17.60;99.90
8862;DHT22;4799;50.996;4.754;2023-07-20T05:57:44;17.60;99.90
8862;DHT22;4799;50.996;4.754;2023-07-20T06:00:10;17.60;99.90
8862;DHT22;4799;50.996;4.754;2023-07-20T06:02:41;17.70;99.90
8862;DHT22;4799;50.996;4.754;2023-07-20T06:05:07;17.70;99.90
8862;DHT22;4799;50.996;4.754;2023-07-20T06:07:39;17.80;99.90
8862;DHT22;4799;50.996;4.754;2023-07-20T06:10:06;17.90;99.90
8862;DHT22;4799;50.996;4.754;2023-07-20T06:12:32;18.00;99.90
8862;DHT22;4799;50.996;4.754;2023-07-20T06:15:03;18.10;99.90
8862;DHT22;4799;50.996;4.754;2023-07-20T06:17:29;18.10;99.90
8862;DHT22;4799;50.996;4.754;2023-07-20T06:19:55;18.20;99.90
8862;DHT22;4799;50.996;4.754;2023-07-20T06:22:20;18.20;99.90
8862;DHT22;4799;50.996;4.754;2023-07-20T06:24:46;18.20;99.90
8862;DHT22;4799;50.996;4.754;2023-07-20T06:27:12;18.20;99.90
8862;DHT22;4799;50.996;4.754;2023-07-20T06:29:38;18.20;99.90
8862;DHT22;4799;50.996;4.754;2023-07-20T06:32:05;18.20;99.90
8862;DHT22;4799;50.996;4.754;2023-07-20T06:34:30;18.20;99.90
8862;DHT22;4799;50.996;4.754;2023-07-20T06:36:56;18.30;99.90
8862;DHT22;4799;50.996;4.754;2023-07-20T06:39:22;18.40;99.90
8862;DHT22;4799;50.996;4.754;2023-07-20T06:41:48;18.60;99.90
8862;DHT22;4799;50.996;4.754;2023-07-20T06:44:13;18.80;99.90
8862;DHT22;4799;50.996;4.754;2023-07-20T06:46:39;19.00;99.90
8862;DHT22;4799;50.996;4.754;2023-07-20T06:49:08;19.20;99.90
8862;DHT22;4799;50.996;4.754;2023-07-20T06:51:34;19.40;99.90
8862;DHT22;4799;50.996;4.754;2023-07-20T06:53:59;19.60;99.90
8862;DHT22;4799;50.996;4.754;2023-07-20T06:56:25;19.70;99.90
8862;DHT22;4799;50.996;4.754;2023-07-20T06:58:51;19.80;99.90
8862;DHT22;4799;50.996;4.754;2023-07-20T07:01:16;19.90;99.90
8862;DHT22;4799;50.996;4.754;2023-07-20T07:03:42;20.00;99.90
8862;DHT22;4799;50.996;4.754;2023-07-20T07:06:09;20.00;99.90
8862;DHT22;4799;50.996;4.754;2023-07-20T07:08:35;20.00;99.90
8862;DHT22;4799;50.996;4.754;2023-07-20T07:11:01;20.00;99.90
8862;DHT22;4799;50.996;4.754;2023-07-20T07:13:27;20.10;99.90
8862;DHT22;4799;50.996;4.754;2023-07-20T07:15:53;20.10;99.90
8862;DHT22;4799;50.996;4.754;2023-07-20T07:18:19;20.20;99.90
8862;DHT22;4799;50.996;4.754;2023-07-20T07:20:53;20.30;99.90
8862;DHT22;4799;50.996;4.754;2023-07-20T07:23:19;20.40;99.90
8862;DHT22;4799;50.996;4.754;2023-07-20T07:25:44;20.40;99.90
8862;DHT22;4799;50.996;4.754;2023-07-20T07:28:10;20.50;99.90
8862;DHT22;4799;50.996;4.754;2023-07-20T07:30:36;20.60;99.90
8862;DHT22;4799;50.996;4.754;2023-07-20T07:33:02;20.60;99.90
8862;DHT22;4799;50.996;4.754;2023-07-20T07:35:27;20.70;99.90
8862;DHT22;4799;50.996;4.754;2023-07-20T07:37:53;20.90;99.90
8862;DHT22;4799;50.996;4.754;2023-07-20T07:40:19;21.00;99.90
8862;DHT22;4799;50.996;4.754;2023-07-20T07:42:44;21.20;99.90
8862;DHT22;4799;50.996;4.754;2023-07-20T07:45:10;21.40;99.90
8862;DHT22;4799;50.996;4.754;2023-07-20T07:47:36;21.60;99.90
8862;DHT22;4799;50.996;4.754;2023-07-20T07:50:02;21.80;99.90
8862;DHT22;4799;50.996;4.754;2023-07-20T07:52:28;22.00;99.90
8862;DHT22;4799;50.996;4.754;2023-07-20T07:54:54;22.10;99.90
8862;DHT22;4799;50.996;4.754;2023-07-20T07:57:20;22.20;99.90
8862;DHT22;4799;50.996;4.754;2023-07-20T07:59:45;22.30;99.90
8862;DHT22;4799;50.996;4.754;2023-07-20T08:02:11;22.30;99.90
8862;DHT22;4799;50.996;4.754;2023-07-20T08:04:37;22.40;99.90
8862;DHT22;4799;50.996;4.754;2023-07-20T08:07:03;22.30;99.90
8862;DHT22;4799;50.996;4.754;2023-07-20T08:09:29;22.30;99.90
8862;DHT22;4799;50.996;4.754;2023-07-20T08:11:55;22.30;99.90
8862;DHT22;4799;50.996;4.754;2023-07-20T08:14:21;22.20;99.90
8862;DHT22;4799;50.996;4.754;2023-07-20T08:16:46;22.20;99.90
8862;DHT22;4799;50.996;4.754;2023-07-20T08:19:13;22.20;99.90
8862;DHT22;4799;50.996;4.754;2023-07-20T08:21:38;22.20;99.90
8862;DHT22;4799;50.996;4.754;2023-07-20T08:24:04;22.30;99.90
8862;DHT22;4799;50.996;4.754;2023-07-20T08:26:30;22.40;99.90
8862;DHT22;4799;50.996;4.754;2023-07-20T08:28:56;22.40;99.90
8862;DHT22;4799;50.996;4.754;2023-07-20T08:31:22;22.40;99.90
8862;DHT22;4799;50.996;4.754;2023-07-20T08:33:47;22.40;99.90
8862;DHT22;4799;50.996;4.754;2023-07-20T08:36:14;22.50;99.90
8862;DHT22;4799;50.996;4.754;2023-07-20T08:38:39;22.50;99.90
8862;DHT22;4799;50.996;4.754;2023-07-20T08:41:05;22.50;99.90
8862;DHT22;4799;50.996;4.754;2023-07-20T08:43:31;22.50;99.90
8862;DHT22;4799;50.996;4.754;2023-07-20T08:45:58;22.50;99.90
8862;DHT22;4799;50.996;4.754;2023-07-20T08:48:24;22.60;99.90
8862;DHT22;4799;50.996;4.754;2023-07-20T08:50:53;22.70;99.90
8862;DHT22;4799;50.996;4.754;2023-07-20T08:53:20;22.70;99.90
8862;DHT22;4799;50.996;4.754;2023-07-20T08:55:50;22.70;99.90
8862;DHT22;4799;50.996;4.754;2023-07-20T08:58:16;22.80;99.90
8862;DHT22;4799;50.996;4.754;2023-07-20T09:00:43;22.90;99.90
8862;DHT22;4799;50.996;4.754;2023-07-20T09:03:11;23.00;99.90
8862;DHT22;4799;50.996;4.754;2023-07-20T09:05:37;23.20;99.90
8862;DHT22;4799;50.996;4.754;2023-07-20T09:08:04;23.50;99.90
8862;DHT22;4799;50.996;4.754;2023-07-20T09:10:30;23.70;99.90
8862;DHT22;4799;50.996;4.754;2023-07-20T09:12:56;23.70;99.90
8862;DHT22;4799;50.996;4.754;2023-07-20T09:15:23;23.60;99.90
8862;DHT22;4799;50.996;4.754;2023-07-20T09:17:52;23.60;99.90
8862;DHT22;4799;50.996;4.754;2023-07-20T09:20:20;23.60;99.90
8862;DHT22;4799;50.996;4.754;2023-07-20T09:22:46;23.60;99.90
8862;DHT22;4799;50.996;4.754;2023-07-20T09:25:13;23.50;99.70
8862;DHT22;4799;50.996;4.754;2023-07-20T09:27:41;23.40;99.90
8862;DHT22;4799;50.996;4.754;2023-07-20T09:30:07;23.30;99.90
8862;DHT22;4799;50.996;4.754;2023-07-20T09:32:41;23.20;99.90
8862;DHT22;4799;50.996;4.754;2023-07-20T09:35:19;23.40;99.90
8862;DHT22;4799;50.996;4.754;2023-07-20T09:37:57;23.50;99.90
8862;DHT22;4799;50.996;4.754;2023-07-20T09:40:24;23.70;99.70
8862;DHT22;4799;50.996;4.754;2023-07-20T09:42:52;23.80;99.30
8862;DHT22;4799;50.996;4.754;2023-07-20T09:45:18;23.90;98.60
8862;DHT22;4799;50.996;4.754;2023-07-20T09:47:44;24.00;98.50
8862;DHT22;4799;50.996;4.754;2023-07-20T09:50:10;24.10;98.40
8862;DHT22;4799;50.996;4.754;2023-07-20T09:52:40;24.40;98.00
8862;DHT22;4799;50.996;4.754;2023-07-20T09:55:07;24.50;95.60
8862;DHT22;4799;50.996;4.754;2023-07-20T09:57:35;24.60;95.60
8862;DHT22;4799;50.996;4.754;2023-07-20T10:00:05;24.80;94.10
8862;DHT22;4799;50.996;4.754;2023-07-20T10:02:42;24.90;94.60
8862;DHT22;4799;50.996;4.754;2023-07-20T10:05:14;25.10;93.60
8862;DHT22;4799;50.996;4.754;2023-07-20T10:07:44;25.20;92.80
8862;DHT22;4799;50.996;4.754;2023-07-20T10:10:14;25.30;92.90
8862;DHT22;4799;50.996;4.754;2023-07-20T10:12:41;25.40;92.40
8862;DHT22;4799;50.996;4.754;2023-07-20T10:15:23;25.40;92.20
8862;DHT22;4799;50.996;4.754;2023-07-20T10:18:02;25.50;89.00
8862;DHT22;4799;50.996;4.754;2023-07-20T10:20:30;25.50;86.80
8862;DHT22;4799;50.996;4.754;2023-07-20T10:22:57;25.60;90.30
8862;DHT22;4799;50.996;4.754;2023-07-20T10:25:23;25.70;90.30
8862;DHT22;4799;50.996;4.754;2023-07-20T10:27:49;25.70;86.20
8862;DHT22;4799;50.996;4.754;2023-07-20T10:30:17;25.60;85.30
8862;DHT22;4799;50.996;4.754;2023-07-20T10:32:44;25.60;84.90
8862;DHT22;4799;50.996;4.754;2023-07-20T10:35:15;25.70;84.90
8862;DHT22;4799;50.996;4.754;2023-07-20T10:37:53;25.70;83.70
8862;DHT22;4799;50.996;4.754;2023-07-20T10:40:32;25.80;85.20
8862;DHT22;4799;50.996;4.754;2023-07-20T10:43:19;25.80;83.40
8862;DHT22;4799;50.996;4.754;2023-07-20T10:45:50;25.80;82.20
8862;DHT22;4799;50.996;4.754;2023-07-20T10:48:21;25.90;81.80
8862;DHT22;4799;50.996;4.754;2023-07-20T10:51:40;25.90;80.50
8862;DHT22;4799;50.996;4.754;2023-07-20T10:54:02;26.00;77.30
8862;DHT22;4799;50.996;4.754;2023-07-20T10:56:28;26.30;78.20
8862;DHT22;4799;50.996;4.754;2023-07-20T10:59:00;26.60;76.90
8862;DHT22;4799;50.996;4.754;2023-07-20T11:01:30;26.80;77.20
8862;DHT22;4799;50.996;4.754;2023-07-20T11:03:59;27.00;72.30
8862;DHT22;4799;50.996;4.754;2023-07-20T11:09:04;27.30;71.50
8862;DHT22;4799;50.996;4.754;2023-07-20T11:11:33;27.50;68.20
8862;DHT22;4799;50.996;4.754;2023-07-20T11:14:01;27.80;68.40
8862;DHT22;4799;50.996;4.754;2023-07-20T11:16:45;28.00;66.60
8862;DHT22;4799;50.996;4.754;2023-07-20T11:19:18;28.30;64.90
8862;DHT22;4799;50.996;4.754;2023-07-20T11:21:46;28.40;64.30
8862;DHT22;4799;50.996;4.754;2023-07-20T11:24:12;28.40;64.30
8862;DHT22;4799;50.996;4.754;2023-07-20T11:29:16;28.30;62.80
8862;DHT22;4799;50.996;4.754;2023-07-20T11:31:43;28.30;61.60
8862;DHT22;4799;50.996;4.754;2023-07-20T11:34:11;28.30;61.10
8862;DHT22;4799;50.996;4.754;2023-07-20T11:36:41;28.40;60.10
8862;DHT22;4799;50.996;4.754;2023-07-20T11:39:11;28.40;60.60
8862;DHT22;4799;50.996;4.754;2023-07-20T11:41:38;28.60;59.50
8862;DHT22;4799;50.996;4.754;2023-07-20T11:44:04;28.50;59.20
8862;DHT22;4799;50.996;4.754;2023-07-20T11:46:32;28.50;59.60
8862;DHT22;4799;50.996;4.754;2023-07-20T11:49:01;28.60;59.40
8862;DHT22;4799;50.996;4.754;2023-07-20T11:51:28;28.80;59.70
8862;DHT22;4799;50.996;4.754;2023-07-20T11:53:55;28.90;58.70
8862;DHT22;4799;50.996;4.754;2023-07-20T11:56:25;28.80;57.40
8862;DHT22;4799;50.996;4.754;2023-07-20T11:58:55;28.60;56.90
8862;DHT22;4799;50.996;4.754;2023-07-20T12:01:22;28.50;57.10
8862;DHT22;4799;50.996;4.754;2023-07-20T12:03:48;28.40;57.70
8862;DHT22;4799;50.996;4.754;2023-07-20T12:06:15;28.20;57.70
8862;DHT22;4799;50.996;4.754;2023-07-20T12:08:44;28.00;58.20
8862;DHT22;4799;50.996;4.754;2023-07-20T12:11:10;27.90;58.50
8862;DHT22;4799;50.996;4.754;2023-07-20T12:13:43;27.80;58.00
8862;DHT22;4799;50.996;4.754;2023-07-20T12:16:14;27.80;57.50
8862;DHT22;4799;50.996;4.754;2023-07-20T12:18:44;27.70;58.10
8862;DHT22;4799;50.996;4.754;2023-07-20T12:21:10;27.60;58.10
8862;DHT22;4799;50.996;4.754;2023-07-20T12:23:38;27.40;58.20
8862;DHT22;4799;50.996;4.754;2023-07-20T12:26:07;27.30;57.80
8862;DHT22;4799;50.996;4.754;2023-07-20T12:28:35;27.30;58.40
8862;DHT22;4799;50.996;4.754;2023-07-20T12:31:01;27.30;58.60
8862;DHT22;4799;50.996;4.754;2023-07-20T12:33:26;27.20;58.70
8862;DHT22;4799;50.996;4.754;2023-07-20T12:35:52;27.20;59.30
8862;DHT22;4799;50.996;4.754;2023-07-20T12:38:21;27.20;59.70
8862;DHT22;4799;50.996;4.754;2023-07-20T12:40:49;27.30;59.40
8862;DHT22;4799;50.996;4.754;2023-07-20T12:43:14;27.30;58.80
8862;DHT22;4799;50.996;4.754;2023-07-20T12:45:40;27.50;57.90
8862;DHT22;4799;50.996;4.754;2023-07-20T12:48:06;27.70;58.10
8862;DHT22;4799;50.996;4.754;2023-07-20T12:50:32;28.00;57.70
8862;DHT22;4799;50.996;4.754;2023-07-20T12:52:58;28.20;57.50
8862;DHT22;4799;50.996;4.754;2023-07-20T12:55:23;28.40;56.90
8862;DHT22;4799;50.996;4.754;2023-07-20T12:57:49;28.60;56.50
8862;DHT22;4799;50.996;4.754;2023-07-20T13:00:16;28.80;56.30
8862;DHT22;4799;50.996;4.754;2023-07-20T13:02:42;28.80;56.30
8862;DHT22;4799;50.996;4.754;2023-07-20T13:05:09;28.90;56.20
8862;DHT22;4799;50.996;4.754;2023-07-20T13:07:37;28.90;55.90
8862;DHT22;4799;50.996;4.754;2023-07-20T13:10:04;28.70;55.80
8862;DHT22;4799;50.996;4.754;2023-07-20T13:12:32;28.60;55.60
8862;DHT22;4799;50.996;4.754;2023-07-20T13:14:58;28.50;55.60
8862;DHT22;4799;50.996;4.754;2023-07-20T13:17:28;28.30;56.00
8862;DHT22;4799;50.996;4.754;2023-07-20T13:19:54;28.00;56.40
8862;DHT22;4799;50.996;4.754;2023-07-20T13:22:20;27.80;56.50
8862;DHT22;4799;50.996;4.754;2023-07-20T13:24:46;27.50;56.70
8862;DHT22;4799;50.996;4.754;2023-07-20T13:27:19;27.30;56.80
8862;DHT22;4799;50.996;4.754;2023-07-20T13:29:45;27.20;56.80
8862;DHT22;4799;50.996;4.754;2023-07-20T13:32:14;27.00;57.50
8862;DHT22;4799;50.996;4.754;2023-07-20T13:34:46;26.90;57.90
8862;DHT22;4799;50.996;4.754;2023-07-20T13:37:12;26.80;57.20
8862;DHT22;4799;50.996;4.754;2023-07-20T13:39:38;26.70;57.40
8862;DHT22;4799;50.996;4.754;2023-07-20T13:42:05;26.70;57.60
8862;DHT22;4799;50.996;4.754;2023-07-20T13:44:31;26.70;57.90
8862;DHT22;4799;50.996;4.754;2023-07-20T13:46:57;26.50;58.90
8862;DHT22;4799;50.996;4.754;2023-07-20T13:49:23;26.30;59.70
8862;DHT22;4799;50.996;4.754;2023-07-20T13:51:49;26.20;59.90
8862;DHT22;4799;50.996;4.754;2023-07-20T13:54:15;26.10;60.30
8862;DHT22;4799;50.996;4.754;2023-07-20T13:56:40;26.10;63.20
8862;DHT22;4799;50.996;4.754;2023-07-20T13:59:06;25.90;62.60
8862;DHT22;4799;50.996;4.754;2023-07-20T14:01:32;25.70;62.00
8862;DHT22;4799;50.996;4.754;2023-07-20T14:04:01;25.60;62.40
8862;DHT22;4799;50.996;4.754;2023-07-20T14:06:30;25.40;63.70
8862;DHT22;4799;50.996;4.754;2023-07-20T14:08:56;25.20;65.10
8862;DHT22;4799;50.996;4.754;2023-07-20T14:11:23;25.10;66.00
8862;DHT22;4799;50.996;4.754;2023-07-20T14:13:50;25.00;67.00
8862;DHT22;4799;50.996;4.754;2023-07-20T14:16:16;24.80;67.50
8862;DHT22;4799;50.996;4.754;2023-07-20T14:18:42;24.60;68.80
8862;DHT22;4799;50.996;4.754;2023-07-20T14:21:08;24.40;70.20
8862;DHT22;4799;50.996;4.754;2023-07-20T14:23:33;24.40;71.50
8862;DHT22;4799;50.996;4.754;2023-07-20T14:25:59;24.20;73.00
8862;DHT22;4799;50.996;4.754;2023-07-20T14:28:25;24.20;73.50
8862;DHT22;4799;50.996;4.754;2023-07-20T14:30:51;24.00;74.20
8862;DHT22;4799;50.996;4.754;2023-07-20T14:33:17;24.00;75.10
8862;DHT22;4799;50.996;4.754;2023-07-20T14:35:42;23.90;75.30
8862;DHT22;4799;50.996;4.754;2023-07-20T14:38:08;23.90;76.10
8862;DHT22;4799;50.996;4.754;2023-07-20T14:40:34;23.90;77.30
8862;DHT22;4799;50.996;4.754;2023-07-20T14:42:59;24.00;77.90
8862;DHT22;4799;50.996;4.754;2023-07-20T14:45:27;24.10;78.10
8862;DHT22;4799;50.996;4.754;2023-07-20T14:47:53;24.20;78.10
8862;DHT22;4799;50.996;4.754;2023-07-20T14:50:23;24.30;78.10
8862;DHT22;4799;50.996;4.754;2023-07-20T14:52:49;24.50;77.50
8862;DHT22;4799;50.996;4.754;2023-07-20T14:55:15;24.60;76.70
8862;DHT22;4799;50.996;4.754;2023-07-20T14:57:40;24.70;75.50
8862;DHT22;4799;50.996;4.754;2023-07-20T15:00:06;24.80;76.40
8862;DHT22;4799;50.996;4.754;2023-07-20T15:02:39;24.90;74.90
8862;DHT22;4799;50.996;4.754;2023-07-20T15:05:10;25.00;73.70
8862;DHT22;4799;50.996;4.754;2023-07-20T15:07:36;25.10;72.60
8862;DHT22;4799;50.996;4.754;2023-07-20T15:10:02;25.20;73.20
8862;DHT22;4799;50.996;4.754;2023-07-20T15:12:29;25.30;72.30
8862;DHT22;4799;50.996;4.754;2023-07-20T15:15:03;25.50;72.90
8862;DHT22;4799;50.996;4.754;2023-07-20T15:17:31;25.50;70.80
8862;DHT22;4799;50.996;4.754;2023-07-20T15:19:56;25.50;70.70
8862;DHT22;4799;50.996;4.754;2023-07-20T15:22:22;25.40;69.30
8862;DHT22;4799;50.996;4.754;2023-07-20T15:24:48;25.30;69.80
8862;DHT22;4799;50.996;4.754;2023-07-20T15:27:13;25.40;70.50
8862;DHT22;4799;50.996;4.754;2023-07-20T15:29:39;25.40;71.00
8862;DHT22;4799;50.996;4.754;2023-07-20T15:32:06;25.40;71.40
8862;DHT22;4799;50.996;4.754;2023-07-20T15:34:32;25.40;71.80
8862;DHT22;4799;50.996;4.754;2023-07-20T15:36:58;25.40;72.30
8862;DHT22;4799;50.996;4.754;2023-07-20T15:39:23;25.20;73.00
8862;DHT22;4799;50.996;4.754;2023-07-20T15:41:51;25.20;72.80
8862;DHT22;4799;50.996;4.754;2023-07-20T15:44:17;25.20;73.10
8862;DHT22;4799;50.996;4.754;2023-07-20T15:46:43;25.30;73.80
8862;DHT22;4799;50.996;4.754;2023-07-20T15:49:09;25.40;74.60
8862;DHT22;4799;50.996;4.754;2023-07-20T15:51:36;25.40;74.10
8862;DHT22;4799;50.996;4.754;2023-07-20T15:54:04;25.50;73.80
8862;DHT22;4799;50.996;4.754;2023-07-20T15:56:33;25.40;72.10
8862;DHT22;4799;50.996;4.754;2023-07-20T15:58:58;25.40;72.10
8862;DHT22;4799;50.996;4.754;2023-07-20T16:01:24;25.30;72.40
8862;DHT22;4799;50.996;4.754;2023-07-20T16:03:50;25.20;72.00
8862;DHT22;4799;50.996;4.754;2023-07-20T16:06:16;25.20;72.80
8862;DHT22;4799;50.996;4.754;2023-07-20T16:08:42;25.10;73.30
8862;DHT22;4799;50.996;4.754;2023-07-20T16:11:07;25.10;74.50
8862;DHT22;4799;50.996;4.754;2023-07-20T16:13:33;25.00;75.30
8862;DHT22;4799;50.996;4.754;2023-07-20T16:15:59;24.90;74.20